createdAt,value
2022-12-04T00:02:10.517Z,96955.50
2022-12-04T00:04:37.126Z,96953.97
2022-12-04T00:07:03.957Z,96952.94
2022-12-04T00:09:30.413Z,96962.59
2022-12-04T00:11:56.904Z,96967.13
2022-12-04T00:14:23.496Z,96964.47
2022-12-04T00:16:50.499Z,96959.47
2022-12-04T00:19:17.380Z,96955.13
2022-12-04T00:21:45.232Z,96951.69
2022-12-04T00:24:12.156Z,96945.44
2022-12-04T00:26:38.701Z,96956.97
2022-12-04T00:29:05.403Z,96953.25
2022-12-04T00:31:32.055Z,96962.59
2022-12-04T00:34:00.386Z,96955.03
2022-12-04T00:36:28.520Z,96937.19
2022-12-04T00:38:55.609Z,96941.91
2022-12-04T00:41:24.712Z,96938.19
2022-12-04T00:43:51.803Z,96941.31
2022-12-04T00:46:18.741Z,96935.72
2022-12-04T00:48:46.293Z,96950.69
2022-12-04T00:51:16.036Z,96955.81
2022-12-04T00:53:42.833Z,96952.69
2022-12-04T00:56:15.697Z,96929.00
2022-12-04T00:58:43.899Z,96942.25
2022-12-04T01:01:21.038Z,96957.00
2022-12-04T01:03:48.441Z,96948.63
2022-12-04T01:06:24.343Z,96943.50
2022-12-04T01:08:52.926Z,96952.50
2022-12-04T01:11:21.153Z,96942.50
2022-12-04T01:13:47.723Z,96935.34
2022-12-04T01:16:20.190Z,96938.38
2022-12-04T01:18:47.571Z,96951.34
2022-12-04T01:21:14.360Z,96934.13
2022-12-04T01:23:40.896Z,96935.09
2022-12-04T01:26:07.485Z,96930.28
2022-12-04T01:28:34.255Z,96933.22
2022-12-04T01:31:04.043Z,96931.34
2022-12-04T01:33:32.080Z,96939.09
2022-12-04T01:36:00.024Z,96942.41
2022-12-04T01:38:27.629Z,96942.19
2022-12-04T01:40:54.745Z,96945.13
2022-12-04T01:43:21.767Z,96931.94
2022-12-04T01:45:50.678Z,96937.09
2022-12-04T01:48:23.085Z,96938.72
2022-12-04T01:50:53.375Z,96946.56
2022-12-04T01:53:21.038Z,96937.56
2022-12-04T01:55:48.428Z,96934.25
2022-12-04T01:58:15.606Z,96936.09
2022-12-04T02:00:42.991Z,96932.19
2022-12-04T02:03:09.850Z,96928.06
2022-12-04T02:05:36.368Z,96929.91
2022-12-04T02:08:05.794Z,96935.81
2022-12-04T02:11:00.455Z,96947.03
2022-12-04T02:13:46.567Z,96942.94
2022-12-04T02:16:51.503Z,96944.84
2022-12-04T02:19:52.147Z,96938.88
2022-12-04T02:22:32.552Z,96943.59
2022-12-04T02:25:12.835Z,96935.00
2022-12-04T02:27:39.261Z,96933.78
2022-12-04T02:30:09.873Z,96931.16
2022-12-04T02:32:41.208Z,96925.41
2022-12-04T02:35:16.540Z,96922.94
2022-12-04T02:37:52.302Z,96920.50
2022-12-04T02:40:29.784Z,96905.41
2022-12-04T02:43:02.820Z,96911.88
2022-12-04T02:45:39.488Z,96911.03
2022-12-04T02:48:08.233Z,96913.13
2022-12-04T02:50:40.281Z,96910.47
2022-12-04T02:53:14.908Z,96912.50
2022-12-04T02:55:49.776Z,96905.38
2022-12-04T02:58:26.059Z,96910.06
2022-12-04T03:00:56.620Z,96911.09
2022-12-04T03:03:29.997Z,96909.44
2022-12-04T03:06:05.808Z,96916.19
2022-12-04T03:08:41.670Z,96913.94
2022-12-04T03:11:08.307Z,96910.50
2022-12-04T03:13:53.679Z,96904.97
2022-12-04T03:16:29.459Z,96915.03
2022-12-04T03:19:01.168Z,96906.22
2022-12-04T03:21:33.115Z,96896.78
2022-12-04T03:24:23.992Z,96888.41
2022-12-04T03:26:59.066Z,96888.59
2022-12-04T03:29:35.678Z,96887.00
2022-12-04T03:32:13.144Z,96883.09
2022-12-04T03:34:44.947Z,96885.91
2022-12-04T03:37:17.184Z,96885.53
2022-12-04T03:40:02.308Z,96885.91
2022-12-04T03:42:39.691Z,96884.31
2022-12-04T03:45:28.888Z,96876.66
2022-12-04T03:48:22.518Z,96878.13
2022-12-04T03:51:26.229Z,96880.22
2022-12-04T03:54:02.267Z,96874.91
2022-12-04T03:56:34.773Z,96869.56
2022-12-04T03:59:09.168Z,96870.13
2022-12-04T04:01:42.206Z,96874.00
2022-12-04T04:04:15.568Z,96886.06
2022-12-04T04:06:57.016Z,96890.44
2022-12-04T04:09:26.818Z,96889.81
2022-12-04T04:12:03.189Z,96886.13
2022-12-04T04:14:59.933Z,96886.59
2022-12-04T04:17:51.678Z,96886.50
2022-12-04T04:20:44.611Z,96892.31
2022-12-04T04:23:31.012Z,96895.00
2022-12-04T04:26:02.763Z,96899.22
2022-12-04T04:28:42.003Z,96904.13
2022-12-04T04:31:17.457Z,96910.88
2022-12-04T04:34:17.123Z,96914.63
2022-12-04T04:36:54.620Z,96915.22
2022-12-04T04:39:48.653Z,96914.25
2022-12-04T04:42:26.790Z,96915.88
2022-12-04T04:45:21.177Z,96912.78
2022-12-04T04:47:47.656Z,96913.63
2022-12-04T04:50:15.840Z,96907.47
2022-12-04T04:52:46.647Z,96901.69
2022-12-04T04:55:16.129Z,96893.28
2022-12-04T04:57:42.609Z,96899.41
2022-12-04T05:00:14.767Z,96894.09
2022-12-04T05:02:42.019Z,96899.00
2022-12-04T05:05:09.551Z,96899.81
2022-12-04T05:07:36.032Z,96896.38
2022-12-04T05:10:02.594Z,96899.25
2022-12-04T05:12:29.068Z,96899.69
2022-12-04T05:14:55.609Z,96911.19
2022-12-04T05:17:22.124Z,96910.34
2022-12-04T05:19:55.255Z,96911.59
2022-12-04T05:22:32.003Z,96908.34
2022-12-04T05:24:59.165Z,96908.97
2022-12-04T05:27:27.867Z,96913.53
2022-12-04T05:29:56.263Z,96897.94
2022-12-04T05:32:25.015Z,96900.34
2022-12-04T05:34:53.315Z,96900.56
2022-12-04T05:37:20.766Z,96897.91
2022-12-04T05:39:47.382Z,96896.47
2022-12-04T05:42:14.600Z,96900.34
2022-12-04T05:44:41.113Z,96894.44
2022-12-04T05:47:07.979Z,96893.22
2022-12-04T05:49:35.257Z,96900.25
2022-12-04T05:52:03.471Z,96898.41
2022-12-04T05:54:29.973Z,96899.63
2022-12-04T05:56:56.469Z,96902.03
2022-12-04T05:59:22.982Z,96894.88
2022-12-04T06:01:49.478Z,96902.25
2022-12-04T06:04:17.009Z,96899.81
2022-12-04T06:06:43.507Z,96901.81
2022-12-04T06:09:11.273Z,96893.38
2022-12-04T06:11:39.972Z,96895.84
2022-12-04T06:14:10.404Z,96895.03
2022-12-04T06:16:40.156Z,96903.22
2022-12-04T06:19:12.491Z,96912.03
2022-12-04T06:21:40.864Z,96904.22
2022-12-04T06:24:10.353Z,96908.72
2022-12-04T06:26:52.034Z,96906.84
2022-12-04T06:29:24.901Z,96905.81
2022-12-04T06:31:51.922Z,96907.88
2022-12-04T06:34:18.827Z,96908.47
2022-12-04T06:36:45.242Z,96900.31
2022-12-04T06:39:15.557Z,96906.47
2022-12-04T06:41:45.048Z,96901.16
2022-12-04T06:44:11.535Z,96896.81
2022-12-04T06:46:43.507Z,96903.16
2022-12-04T06:49:12.823Z,96902.16
2022-12-04T06:51:40.675Z,96903.81
2022-12-04T06:54:07.275Z,96902.16
2022-12-04T06:56:34.456Z,96905.44
2022-12-04T06:59:03.705Z,96905.88
2022-12-04T07:01:33.312Z,96903.03
2022-12-04T07:04:03.305Z,96905.13
2022-12-04T07:06:35.035Z,96903.66
2022-12-04T07:09:05.303Z,96906.50
2022-12-04T07:11:32.323Z,96913.63
2022-12-04T07:13:58.862Z,96911.16
2022-12-04T07:16:27.404Z,96907.03
2022-12-04T07:18:54.783Z,96909.53
2022-12-04T07:21:23.968Z,96914.84
2022-12-04T07:23:52.396Z,96909.13
2022-12-04T07:26:20.456Z,96906.84
2022-12-04T07:28:47.384Z,96910.78
2022-12-04T07:31:17.889Z,96903.41
2022-12-04T07:33:45.515Z,96907.72
2022-12-04T07:36:14.590Z,96914.88
2022-12-04T07:38:42.127Z,96914.88
2022-12-04T07:41:10.729Z,96918.59
2022-12-04T07:43:38.030Z,96902.63
2022-12-04T07:46:11.820Z,96907.72
2022-12-04T07:48:38.427Z,96905.47
2022-12-04T07:51:07.285Z,96912.06
2022-12-04T07:53:35.154Z,96910.00
2022-12-04T07:56:02.944Z,96909.19
2022-12-04T07:58:29.511Z,96911.25
2022-12-04T08:00:56.122Z,96912.09
2022-12-04T08:03:22.772Z,96916.16
2022-12-04T08:05:49.250Z,96923.56
2022-12-04T08:08:15.799Z,96918.03
2022-12-04T08:10:42.370Z,96911.06
2022-12-04T08:13:08.912Z,96912.47
2022-12-04T08:15:35.649Z,96906.56
2022-12-04T08:18:02.154Z,96909.22
2022-12-04T08:20:28.655Z,96906.09
2022-12-04T08:22:55.102Z,96917.38
2022-12-04T08:25:21.595Z,96918.63
2022-12-04T08:27:48.438Z,96916.56
2022-12-04T08:30:15.012Z,96919.06
2022-12-04T08:32:41.556Z,96921.78
2022-12-04T08:35:08.465Z,96915.47
2022-12-04T08:37:34.988Z,96916.59
2022-12-04T08:40:01.537Z,96911.09
2022-12-04T08:42:28.065Z,96911.50
2022-12-04T08:44:54.534Z,96924.59
2022-12-04T08:47:20.991Z,96933.66
2022-12-04T08:49:47.422Z,96939.41
2022-12-04T08:52:13.980Z,96942.06
2022-12-04T08:54:40.408Z,96943.44
2022-12-04T08:57:06.896Z,96952.41
2022-12-04T08:59:33.437Z,96949.16
2022-12-04T09:01:59.959Z,96938.09
2022-12-04T09:04:26.557Z,96948.75
2022-12-04T09:06:53.063Z,96948.53
2022-12-04T09:09:19.565Z,96951.50
2022-12-04T09:11:46.403Z,96952.75
2022-12-04T09:14:13.063Z,96954.00
2022-12-04T09:16:39.524Z,96955.78
2022-12-04T09:19:05.964Z,96950.47
2022-12-04T09:21:32.456Z,96951.47
2022-12-04T09:23:59.574Z,96946.31
2022-12-04T09:26:33.259Z,96950.28
2022-12-04T09:29:01.585Z,96959.91
2022-12-04T09:31:28.381Z,96952.97
2022-12-04T09:33:55.067Z,96941.47
2022-12-04T09:36:22.000Z,96945.19
2022-12-04T09:38:50.656Z,96932.69
2022-12-04T09:41:54.728Z,96930.66
2022-12-04T09:44:27.824Z,96929.19
2022-12-04T09:47:01.965Z,96920.97
2022-12-04T09:49:28.492Z,96915.59
2022-12-04T09:51:59.363Z,96915.81
2022-12-04T09:54:39.850Z,96904.78
2022-12-04T09:57:21.990Z,96895.38
2022-12-04T09:59:50.189Z,96893.72
2022-12-04T10:02:35.550Z,96894.13
2022-12-04T10:05:02.831Z,96879.41
2022-12-04T10:07:32.926Z,96876.78
2022-12-04T10:09:59.395Z,96879.88
2022-12-04T10:12:57.117Z,96866.75
2022-12-04T10:15:32.808Z,96872.25
2022-12-04T10:18:17.785Z,96866.34
2022-12-04T10:21:07.773Z,96864.31
2022-12-04T10:23:43.163Z,96856.91
2022-12-04T10:26:18.176Z,96868.78
2022-12-04T10:28:55.275Z,96870.81
2022-12-04T10:31:24.435Z,96864.69
2022-12-04T10:33:55.790Z,96858.91
2022-12-04T10:36:29.074Z,96865.28
2022-12-04T10:38:59.584Z,96858.91
2022-12-04T10:41:40.730Z,96854.81
2022-12-04T10:44:19.660Z,96852.59
2022-12-04T10:46:46.996Z,96856.69
2022-12-04T10:49:21.657Z,96862.19
2022-12-04T10:51:49.050Z,96869.59
2022-12-04T10:54:37.384Z,96868.34
2022-12-04T10:57:06.493Z,96875.34
2022-12-04T10:59:34.075Z,96878.03
2022-12-04T11:02:06.883Z,96886.81
2022-12-04T11:04:35.032Z,96876.81
2022-12-04T11:07:14.783Z,96885.16
2022-12-04T11:09:41.348Z,96881.66
2022-12-04T11:12:17.654Z,96882.31
2022-12-04T11:14:47.177Z,96881.28
2022-12-04T11:17:19.607Z,96876.78
2022-12-04T11:19:46.120Z,96870.00
2022-12-04T11:22:16.137Z,96871.25
2022-12-04T11:24:49.359Z,96871.25
2022-12-04T11:27:29.131Z,96870.81
2022-12-04T11:29:56.683Z,96879.00
2022-12-04T11:32:27.632Z,96878.59
2022-12-04T11:34:57.795Z,96886.00
2022-12-04T11:37:34.820Z,96863.81
2022-12-04T11:40:06.760Z,96859.16
2022-12-04T11:42:33.567Z,96865.25
2022-12-04T11:45:18.906Z,96857.84
2022-12-04T11:47:55.036Z,96851.53
2022-12-04T11:50:37.717Z,96849.50
2022-12-04T11:53:14.954Z,96844.63
2022-12-04T11:55:47.549Z,96851.59
2022-12-04T11:58:39.088Z,96857.31
2022-12-04T12:01:20.925Z,96851.81
2022-12-04T12:04:06.824Z,96846.91
2022-12-04T12:06:39.230Z,96849.78
2022-12-04T12:09:22.713Z,96862.84
2022-12-04T12:12:01.964Z,96869.63
2022-12-04T12:14:34.767Z,96862.22
2022-12-04T12:17:10.174Z,96854.44
2022-12-04T12:19:45.803Z,96861.22
2022-12-04T12:23:17.284Z,96862.25
2022-12-04T12:25:51.922Z,96830.47
2022-12-04T12:28:33.654Z,96832.75
2022-12-04T12:31:06.389Z,96828.25
2022-12-04T12:33:42.217Z,96831.31
2022-12-04T12:36:12.814Z,96831.31
2022-12-04T12:38:55.359Z,96833.13
2022-12-04T12:41:50.558Z,96830.28
2022-12-04T12:44:46.780Z,96837.25
2022-12-04T12:47:17.974Z,96831.31
2022-12-04T12:50:01.872Z,96830.47
2022-12-04T12:52:52.583Z,96819.59
2022-12-04T12:55:45.447Z,96818.94
2022-12-04T12:58:39.831Z,96824.28
2022-12-04T13:01:22.459Z,96838.84
2022-12-04T13:04:04.959Z,96825.50
2022-12-04T13:06:39.204Z,96824.94
2022-12-04T13:09:11.683Z,96814.66
2022-12-04T13:11:38.999Z,96803.59
2022-12-04T13:14:06.191Z,96805.63
2022-12-04T13:16:35.360Z,96804.00
2022-12-04T13:19:22.863Z,96820.63
2022-12-04T13:22:26.895Z,96814.47
2022-12-04T13:25:21.507Z,96812.00
2022-12-04T13:28:12.807Z,96813.25
2022-12-04T13:30:55.735Z,96809.78
2022-12-04T13:33:41.103Z,96820.81
2022-12-04T13:36:07.664Z,96828.00
2022-12-04T13:39:04.907Z,96833.34
2022-12-04T13:41:39.076Z,96840.31
2022-12-04T13:44:32.666Z,96834.75
2022-12-04T13:47:00.514Z,96843.38
2022-12-04T13:49:38.076Z,96841.13
2022-12-04T13:52:20.686Z,96842.16
2022-12-04T13:54:58.514Z,96835.19
2022-12-04T13:57:27.335Z,96840.91
2022-12-04T14:00:08.139Z,96840.31
2022-12-04T14:02:49.061Z,96846.06
2022-12-04T14:05:15.778Z,96844.19
2022-12-04T14:08:06.917Z,96844.22
2022-12-04T14:10:38.987Z,96842.81
2022-12-04T14:13:29.052Z,96839.09
2022-12-04T14:16:08.065Z,96820.66
2022-12-04T14:18:34.666Z,96806.47
2022-12-04T14:21:05.536Z,96817.34
2022-12-04T14:23:42.681Z,96816.75
2022-12-04T14:29:47.878Z,96816.75
2022-12-04T14:32:18.715Z,96810.81
2022-12-04T14:34:47.910Z,96795.41
2022-12-04T14:37:27.826Z,96805.69
2022-12-04T14:39:56.619Z,96815.09
2022-12-04T14:42:27.087Z,96819.41
2022-12-04T14:44:56.560Z,96825.56
2022-12-04T14:47:42.152Z,96820.63
2022-12-04T14:50:39.224Z,96822.47
2022-12-04T14:53:20.690Z,96815.50
2022-12-04T14:56:03.387Z,96799.91
2022-12-04T14:58:36.919Z,96789.25
2022-12-04T15:01:23.899Z,96789.88
2022-12-04T15:03:56.002Z,96802.56
2022-12-04T15:06:30.201Z,96815.50
2022-12-04T15:09:18.639Z,96813.66
2022-12-04T15:12:11.562Z,96827.19
2022-12-04T15:14:43.933Z,96831.31
2022-12-04T15:17:12.395Z,96842.81
2022-12-04T15:19:40.208Z,96839.91
2022-12-04T15:22:32.992Z,96845.22
2022-12-04T15:24:59.928Z,96856.94
2022-12-04T15:27:31.964Z,96848.31
2022-12-04T15:30:01.541Z,96857.75
2022-12-04T15:32:29.716Z,96851.00
2022-12-04T15:35:03.046Z,96850.16
2022-12-04T15:37:31.555Z,96856.09
2022-12-04T15:39:59.234Z,96858.78
2022-12-04T15:42:28.868Z,96850.16
2022-12-04T15:45:01.178Z,96855.50
2022-12-04T15:47:48.103Z,96842.56
2022-12-04T15:50:17.522Z,96848.53
2022-12-04T15:53:26.744Z,96859.78
2022-12-04T15:55:56.313Z,96851.19
2022-12-04T15:58:28.117Z,96848.94
2022-12-04T16:00:56.483Z,96843.00
2022-12-04T16:03:32.913Z,96840.53
2022-12-04T16:06:32.733Z,96840.31
2022-12-04T16:09:17.375Z,96842.56
2022-12-04T16:11:44.499Z,96836.81
2022-12-04T16:14:10.921Z,96828.22
2022-12-04T16:16:41.985Z,96826.56
2022-12-04T16:19:15.194Z,96831.28
2022-12-04T16:21:41.800Z,96830.06
2022-12-04T16:24:11.471Z,96821.88
2022-12-04T16:26:37.908Z,96820.44
2022-12-04T16:29:04.350Z,96824.75
2022-12-04T16:31:30.945Z,96825.78
2022-12-04T16:33:57.609Z,96825.13
2022-12-04T16:36:24.162Z,96820.19
2022-12-04T16:38:51.352Z,96812.63
2022-12-04T16:41:19.529Z,96812.00
2022-12-04T16:43:53.782Z,96808.34
2022-12-04T16:46:20.918Z,96807.31
2022-12-04T16:48:47.342Z,96809.78
2022-12-04T16:51:19.955Z,96813.44
2022-12-04T16:53:46.466Z,96809.13
2022-12-04T16:56:13.262Z,96802.78
2022-12-04T16:58:39.759Z,96809.53
2022-12-04T17:01:18.142Z,96816.28
2022-12-04T17:03:44.688Z,96817.72
2022-12-04T17:06:11.204Z,96822.44
2022-12-04T17:08:37.641Z,96819.38
2022-12-04T17:11:04.155Z,96831.22
2022-12-04T17:13:30.592Z,96841.47
2022-12-04T17:15:58.227Z,96840.91
2022-12-04T17:18:24.728Z,96836.63
2022-12-04T17:20:51.262Z,96821.88
2022-12-04T17:23:17.821Z,96823.22
2022-12-04T17:25:44.322Z,96833.44
2022-12-04T17:28:11.674Z,96832.66
2022-12-04T17:30:38.082Z,96839.44
2022-12-04T17:33:05.291Z,96856.69
2022-12-04T17:35:31.877Z,96864.06
2022-12-04T17:38:02.301Z,96867.16
2022-12-04T17:40:32.290Z,96854.38
2022-12-04T17:42:58.700Z,96855.81
2022-12-04T17:45:25.147Z,96868.97
2022-12-04T17:47:51.641Z,96867.94
2022-12-04T17:50:18.175Z,96864.66
2022-12-04T17:52:44.700Z,96868.09
2022-12-04T17:55:11.091Z,96880.22
2022-12-04T17:57:37.596Z,96877.94
2022-12-04T18:00:04.886Z,96885.50
2022-12-04T18:02:38.943Z,96883.69
2022-12-04T18:05:05.511Z,96883.47
2022-12-04T18:07:31.981Z,96880.81
2022-12-04T18:09:58.733Z,96874.66
2022-12-04T18:12:25.677Z,96879.16
2022-12-04T18:14:53.112Z,96881.41
2022-12-04T18:17:20.812Z,96884.06
2022-12-04T18:19:47.229Z,96891.22
2022-12-04T18:22:13.924Z,96883.44
2022-12-04T18:24:40.467Z,96883.19
2022-12-04T18:27:07.995Z,96882.44
2022-12-04T18:29:34.454Z,96887.31
2022-12-04T18:32:00.989Z,96883.44
2022-12-04T18:34:27.468Z,96885.91
2022-12-04T18:36:53.866Z,96886.16
2022-12-04T18:39:23.218Z,96883.66
2022-12-04T18:41:50.211Z,96886.34
2022-12-04T18:44:17.456Z,96884.28
2022-12-04T18:46:43.996Z,96887.31
2022-12-04T18:49:11.367Z,96890.84
2022-12-04T18:51:47.136Z,96893.88
2022-12-04T18:54:18.504Z,96884.47
2022-12-04T18:56:45.754Z,96895.13
2022-12-04T18:59:30.413Z,96897.78
2022-12-04T19:01:56.912Z,96901.06
2022-12-04T19:04:24.800Z,96901.06
2022-12-04T19:06:54.389Z,96896.13
2022-12-04T19:09:54.389Z,96893.88
2022-12-04T19:12:14.690Z,96899.88
2022-12-04T19:14:41.217Z,96902.31
2022-12-04T19:17:07.755Z,96903.16
2022-12-04T19:19:34.299Z,96906.44
2022-12-04T19:22:01.140Z,96907.06
2022-12-04T19:24:27.697Z,96913.78
2022-12-04T19:26:54.562Z,96922.41
2022-12-04T19:29:21.069Z,96921.19
2022-12-04T19:31:47.537Z,96923.69
2022-12-04T19:34:14.081Z,96924.25
2022-12-04T19:36:41.175Z,96924.00
2022-12-04T19:39:07.657Z,96926.91
2022-12-04T19:41:35.213Z,96930.78
2022-12-04T19:44:07.849Z,96938.56
2022-12-04T19:46:41.389Z,96939.16
2022-12-04T19:49:08.122Z,96947.31
2022-12-04T19:51:37.910Z,96946.94
2022-12-04T19:54:05.761Z,96951.47
2022-12-04T19:56:34.647Z,96953.72
2022-12-04T19:59:03.904Z,96949.22
2022-12-04T20:01:32.272Z,96955.78
2022-12-04T20:04:02.515Z,96956.22
2022-12-04T20:06:30.471Z,96966.69
2022-12-04T20:08:59.615Z,96962.59
2022-12-04T20:11:28.083Z,96957.47
2022-12-04T20:13:56.718Z,96959.16
2022-12-04T20:16:24.996Z,96956.88
2022-12-04T20:18:52.539Z,96953.44
2022-12-04T20:21:19.921Z,96952.41
2022-12-04T20:23:51.171Z,96947.06
2022-12-04T20:26:20.561Z,96942.13
2022-12-04T20:28:46.991Z,96947.28
2022-12-04T20:31:14.166Z,96946.25
2022-12-04T20:33:41.149Z,96941.19
2022-12-04T20:36:09.497Z,96945.69
2022-12-04T20:38:36.476Z,96949.97
2022-12-04T20:41:07.863Z,96951.78
2022-12-04T20:43:34.702Z,96960.47
2022-12-04T20:46:01.572Z,96953.69
2022-12-04T20:48:28.453Z,96940.56
2022-12-04T20:50:54.967Z,96948.75
2022-12-04T20:53:21.430Z,96953.47
2022-12-04T20:55:55.344Z,96949.38
2022-12-04T20:58:22.053Z,96943.84
2022-12-04T21:00:48.906Z,96940.19
2022-12-04T21:03:15.842Z,96945.94
2022-12-04T21:05:48.272Z,96946.94
2022-12-04T21:08:14.796Z,96942.44
2022-12-04T21:10:41.284Z,96942.88
2022-12-04T21:13:31.291Z,96934.03
2022-12-04T21:16:01.935Z,96932.41
2022-12-04T21:18:28.427Z,96930.13
2022-12-04T21:20:54.820Z,96930.13
2022-12-04T21:23:21.223Z,96934.88
2022-12-04T21:25:47.707Z,96941.44
2022-12-04T21:28:14.164Z,96939.19
2022-12-04T21:30:40.699Z,96953.34
2022-12-04T21:33:07.202Z,96953.38
2022-12-04T21:35:33.665Z,96947.81
2022-12-04T21:38:00.081Z,96948.03
2022-12-04T21:40:26.536Z,96942.47
2022-12-04T21:42:53.006Z,96942.09
2022-12-04T21:45:19.460Z,96938.44
2022-12-04T21:47:45.873Z,96948.66
2022-12-04T21:50:12.374Z,96947.84
2022-12-04T21:52:38.783Z,96949.28
2022-12-04T21:55:05.517Z,96949.88
2022-12-04T21:57:32.060Z,96958.09
2022-12-04T21:59:58.668Z,96963.00
2022-12-04T22:02:25.310Z,96967.28
2022-12-04T22:04:51.857Z,96970.16
2022-12-04T22:07:18.267Z,96958.72
2022-12-04T22:09:44.813Z,96966.06
2022-12-04T22:12:33.084Z,96965.84
2022-12-04T22:14:57.631Z,96970.69
2022-12-04T22:17:24.047Z,96973.34
2022-12-04T22:19:50.461Z,96977.19
2022-12-04T22:22:16.885Z,96974.50
2022-12-04T22:24:43.310Z,96981.88
2022-12-04T22:27:14.778Z,96982.69
2022-12-04T22:29:50.232Z,96984.38
2022-12-04T22:32:27.602Z,96998.91
2022-12-04T22:34:54.041Z,97000.50
2022-12-04T22:37:20.451Z,97001.53
2022-12-04T22:39:46.951Z,97001.94
2022-12-04T22:42:13.479Z,96999.13
2022-12-04T22:44:39.933Z,97001.78
2022-12-04T22:47:06.534Z,97001.78
2022-12-04T22:49:33.100Z,97001.25
2022-12-04T22:51:59.630Z,96998.38
2022-12-04T22:54:26.098Z,96997.97
2022-12-04T22:56:53.286Z,96986.28
2022-12-04T22:59:19.683Z,97003.72
2022-12-04T23:01:46.132Z,96995.09
2022-12-04T23:04:12.825Z,96992.41
2022-12-04T23:06:39.212Z,96999.75
2022-12-04T23:09:12.007Z,96999.94
2022-12-04T23:11:39.222Z,97004.50
2022-12-04T23:14:08.425Z,96999.59
2022-12-04T23:16:36.744Z,97005.56
2022-12-04T23:19:05.152Z,96994.09
2022-12-04T23:21:31.850Z,97004.97
2022-12-04T23:23:58.414Z,97007.19
2022-12-04T23:26:29.807Z,97013.09
2022-12-04T23:28:56.734Z,97019.59
2022-12-04T23:31:24.117Z,97014.31
2022-12-04T23:33:50.863Z,97020.25
2022-12-04T23:36:17.364Z,97028.44
2022-12-04T23:38:44.263Z,97033.97
2022-12-04T23:41:12.204Z,97038.44
2022-12-04T23:43:39.543Z,97044.00
2022-12-04T23:46:10.936Z,97047.88
2022-12-04T23:48:39.304Z,97052.34
2022-12-04T23:51:06.816Z,97049.03
2022-12-04T23:53:33.679Z,97054.97
2022-12-04T23:56:18.733Z,97059.91
2022-12-04T23:58:46.812Z,97067.94
